Time;durP1;ratioP1;P1;durP2;ratioP2;P2;SDS_P1;SDS_P2;PMS_P1;PMS_P2;Temp;Humidity;BMP_temperature;BMP_pressure;BME280_temperature;BME280_humidity;BME280_pressure;Samples;Min_cycle;Max_cycle;Signal;HPM_P1;HPM_P2
2022/07/22 06:37:36;;;;;;;;;3.00;3.00;;;;;-147.49;100.00;58502.75;6323025;22;8804;-87
2022/07/22 06:40:02;;;;;;;;;3.00;3.00;;;;;-147.49;100.00;58502.75;6324370;22;8749;-87
2022/07/22 06:42:27;;;;;;;;;3.00;3.00;;;;;-147.49;100.00;58502.75;6324961;22;8788;-87
2022/07/22 06:44:53;;;;;;;;;3.67;3.67;;;;;-147.49;100.00;58502.75;6324993;22;8771;-87
2022/07/22 06:47:18;;;;;;;;;4.33;4.33;;;;;-147.49;100.00;58502.75;6296153;22;8764;-87
2022/07/22 06:49:43;;;;;;;;;3.67;3.67;;;;;-147.49;100.00;58502.75;6323782;22;8794;-87
2022/07/22 06:52:09;;;;;;;;;5.33;5.33;;;;;-147.49;100.00;58502.75;6324482;22;8782;-87
2022/07/22 06:54:34;;;;;;;;;3.67;3.67;;;;;-147.49;100.00;58502.75;6325064;22;9538;-87
2022/07/22 06:57:00;;;;;;;;;6.67;6.67;;;;;-147.49;100.00;58502.75;6325240;22;8805;-87
2022/07/22 06:59:25;;;;;;;;;3.67;3.67;;;;;-147.49;100.00;58502.75;6323032;22;8792;-88
2022/07/22 07:01:50;;;;;;;;;6.00;5.33;;;;;-147.49;100.00;58502.75;6322856;22;8838;-88
2022/07/22 07:04:18;;;;;;;;;3.00;3.00;;;;;-147.49;100.00;58502.75;6324705;22;8799;-87
2022/07/22 07:06:43;;;;;;;;;5.00;5.00;;;;;-147.49;100.00;58502.75;6323141;22;8811;-87
2022/07/22 07:09:09;;;;;;;;;5.67;5.67;;;;;-147.49;100.00;58502.75;6323553;22;8819;-87
2022/07/22 07:11:34;;;;;;;;;4.67;4.67;;;;;-147.49;100.00;58502.75;6323492;22;8796;-87
2022/07/22 07:14:00;;;;;;;;;4.00;4.00;;;;;-147.49;100.00;58502.75;6324586;22;8748;-88
2022/07/22 07:16:25;;;;;;;;;6.00;6.00;;;;;-147.49;100.00;58502.75;6323893;22;8749;-89
2022/07/22 07:18:51;;;;;;;;;4.00;4.00;;;;;-147.49;100.00;58502.75;6323967;22;8868;-88
2022/07/22 07:21:16;;;;;;;;;4.00;4.00;;;;;-147.49;100.00;58502.75;6295855;22;8760;-88
2022/07/22 07:23:41;;;;;;;;;2.33;2.33;;;;;-147.49;100.00;58502.75;6321681;22;8764;-88
2022/07/22 07:26:07;;;;;;;;;4.00;4.00;;;;;-147.49;100.00;58502.75;6323879;22;8760;-88
2022/07/22 07:28:33;;;;;;;;;2.00;2.00;;;;;-147.49;100.00;58502.75;6322736;22;8724;-88
2022/07/22 07:30:58;;;;;;;;;1.33;1.33;;;;;-147.49;100.00;58502.75;6324676;22;8784;-88
2022/07/22 07:33:24;;;;;;;;;3.33;3.33;;;;;-147.49;100.00;58502.75;6324973;22;8760;-87
2022/07/22 07:35:49;;;;;;;;;2.67;2.67;;;;;-147.49;100.00;58502.75;6323763;22;8744;-87
2022/07/22 07:38:15;;;;;;;;;3.00;3.00;;;;;-147.49;100.00;58502.75;6324463;22;8785;-88
2022/07/22 07:40:41;;;;;;;;;3.33;3.33;;;;;-147.49;100.00;58502.75;6354937;22;8760;-88
2022/07/22 07:43:06;;;;;;;;;2.50;2.50;;;;;-147.49;100.00;58502.75;6355784;22;8764;-88
2022/07/22 07:45:32;;;;;;;;;1.67;1.67;;;;;-147.49;100.00;58502.75;6355929;22;8746;-90
2022/07/22 07:47:58;;;;;;;;;3.75;3.00;;;;;-147.49;100.00;58502.75;6354600;22;8734;-85
2022/07/22 07:50:24;;;;;;;;;2.00;2.00;;;;;-147.49;100.00;58502.75;6354563;22;8758;-88
2022/07/22 07:52:50;;;;;;;;;2.75;2.75;;;;;-147.49;100.00;58502.75;6355112;22;8739;-88
2022/07/22 07:55:16;;;;;;;;;3.75;2.75;;;;;-147.49;100.00;58502.75;6355373;22;9791;-88
2022/07/22 07:57:43;;;;;;;;;2.33;2.33;;;;;-147.49;100.00;58502.75;6355939;22;8731;-88
2022/07/22 08:00:10;;;;;;;;;3.00;3.00;;;;;-147.49;100.00;58502.75;6356014;22;8746;-88
2022/07/22 08:02:36;;;;;;;;;1.75;1.75;;;;;-147.49;100.00;58502.75;6355462;22;8738;-87
2022/07/22 08:05:02;;;;;;;;;2.00;2.00;;;;;-147.49;100.00;58502.75;6354854;22;8954;-88
2022/07/22 08:07:29;;;;;;;;;4.25;4.25;;;;;-147.49;100.00;58502.75;6355713;22;8749;-88
2022/07/22 08:09:55;;;;;;;;;4.75;3.25;;;;;-147.49;100.00;58502.75;6355720;22;8733;-87
2022/07/22 08:12:20;;;;;;;;;2.00;2.00;;;;;-147.49;100.00;58502.75;6355744;22;8734;-87
2022/07/22 08:14:46;;;;;;;;;3.00;3.00;;;;;-147.49;100.00;58502.75;6355705;22;8839;-88
2022/07/22 08:17:12;;;;;;;;;3.00;3.00;;;;;-147.49;100.00;58502.75;6354670;22;8765;-88
2022/07/22 08:19:37;;;;;;;;;4.00;4.00;;;;;-147.49;100.00;58502.75;6354967;22;8753;-88
2022/07/22 08:22:03;;;;;;;;;2.00;2.00;;;;;-147.49;100.00;58502.75;6352938;22;9944;-88
2022/07/22 08:24:28;;;;;;;;;3.00;3.00;;;;;-147.49;100.00;58502.75;6353309;22;8814;-88
2022/07/22 08:26:54;;;;;;;;;2.00;2.00;;;;;-147.49;100.00;58502.75;6355567;22;8836;-89
2022/07/22 08:29:19;;;;;;;;;3.00;3.00;;;;;-147.49;100.00;58502.75;6324807;22;8929;-88
2022/07/22 08:31:44;;;;;;;;;2.67;2.67;;;;;-147.49;100.00;58502.75;6355128;22;8819;-88
2022/07/22 08:34:10;;;;;;;;;2.67;2.67;;;;;-147.49;100.00;58502.75;6354149;22;8750;-87
2022/07/22 08:36:35;;;;;;;;;2.00;2.00;;;;;-147.49;100.00;58502.75;6325887;22;9533;-87
2022/07/22 08:39:01;;;;;;;;;2.00;2.00;;;;;-147.49;100.00;58502.75;6355480;22;8750;-89
2022/07/22 08:41:26;;;;;;;;;1.33;1.33;;;;;-147.49;100.00;58502.75;6355618;22;8758;-88
2022/07/22 08:43:52;;;;;;;;;2.00;2.00;;;;;-147.49;100.00;58502.75;6353451;22;8798;-87
2022/07/22 08:46:18;;;;;;;;;2.50;2.50;;;;;-147.49;100.00;58502.75;6354645;22;8768;-87
2022/07/22 08:48:45;;;;;;;;;5.00;5.00;;;;;-147.49;100.00;58502.75;6355210;22;8790;-87
2022/07/22 08:51:10;;;;;;;;;3.25;3.25;;;;;-147.49;100.00;58502.75;6355195;22;8735;-89
2022/07/22 08:53:36;;;;;;;;;1.33;1.33;;;;;-147.49;100.00;58502.75;6327247;22;8835;-89
2022/07/22 08:56:01;;;;;;;;;3.33;3.33;;;;;-147.49;100.00;58502.75;6355121;22;8770;-88
2022/07/22 08:58:27;;;;;;;;;1.00;1.00;;;;;-147.49;100.00;58502.75;6354735;22;8761;-88
2022/07/22 09:01:14;;;;;;;;;4.00;3.00;;;;;-147.49;100.00;58502.75;6354730;22;8835;-89
2022/07/22 09:03:55;;;;;;;;;3.75;3.50;;;;;-147.49;100.00;58502.75;6354072;22;8777;-88
2022/07/22 09:06:25;;;;;;;;;2.25;2.25;;;;;-147.49;100.00;58502.75;6354014;22;8727;-88
2022/07/22 09:09:03;;;;;;;;;2.00;2.00;;;;;-147.49;100.00;58502.75;6355571;22;8730;-88
2022/07/22 09:11:30;;;;;;;;;3.00;3.00;;;;;-147.49;100.00;58502.75;6354849;22;8756;-88
2022/07/22 09:13:57;;;;;;;;;2.50;2.50;;;;;-147.49;100.00;58502.75;6355666;22;8758;-88
2022/07/22 09:16:43;;;;;;;;;2.00;2.00;;;;;-147.49;100.00;58502.75;6354666;22;8715;-87
2022/07/22 09:19:09;;;;;;;;;4.00;4.00;;;;;-147.49;100.00;58502.75;6354971;22;8739;-88
2022/07/22 09:21:36;;;;;;;;;4.00;4.00;;;;;-147.49;100.00;58502.75;6354331;22;8729;-87
2022/07/22 09:24:03;;;;;;;;;6.25;6.00;;;;;-147.49;100.00;58502.75;6355452;22;8789;-88
2022/07/22 09:26:34;;;;;;;;;3.00;3.00;;;;;-147.49;100.00;58502.75;6354414;22;8757;-88
2022/07/22 09:29:01;;;;;;;;;2.00;2.00;;;;;-147.49;100.00;58502.75;6327255;22;8754;-88
2022/07/22 09:31:31;;;;;;;;;2.00;2.00;;;;;-147.49;100.00;58502.75;6353178;22;8843;-88
2022/07/22 09:33:58;;;;;;;;;3.00;2.00;;;;;-147.49;100.00;58502.75;6325872;22;8778;-89
2022/07/22 09:36:23;;;;;;;;;2.25;2.25;;;;;-147.49;100.00;58502.75;6353942;22;8697;-88
2022/07/22 09:38:50;;;;;;;;;4.00;4.00;;;;;-147.49;100.00;58502.75;6355417;22;8734;-89
2022/07/22 09:41:16;;;;;;;;;3.75;2.75;;;;;-147.49;100.00;58502.75;6351524;22;9007;-87
2022/07/22 09:43:41;;;;;;;;;1.75;1.75;;;;;-147.49;100.00;58502.75;6354876;22;8766;-88
2022/07/22 09:46:08;;;;;;;;;11.00;6.33;;;;;-147.49;100.00;58502.75;6355536;22;8811;-89
2022/07/22 09:48:33;;;;;;;;;11.67;10.00;;;;;-147.49;100.00;58502.75;6355348;22;8844;-88
2022/07/22 09:50:59;;;;;;;;;3.00;3.00;;;;;-147.49;100.00;58502.75;6325325;22;8863;-88
2022/07/22 09:53:28;;;;;;;;;4.00;3.00;;;;;-147.49;100.00;58502.75;6326621;22;9489;-88
2022/07/22 09:55:57;;;;;;;;;3.50;2.75;;;;;-147.49;100.00;58502.75;6351819;22;8722;-88
2022/07/22 09:58:23;;;;;;;;;3.50;3.50;;;;;-147.49;100.00;58502.75;6355486;22;8764;-88
2022/07/22 10:00:49;;;;;;;;;3.33;3.33;;;;;-147.49;100.00;58502.75;6353071;22;8746;-88
2022/07/22 10:03:25;;;;;;;;;3.25;3.25;;;;;-147.49;100.00;58502.75;6352080;22;8687;-88
2022/07/22 10:05:51;;;;;;;;;1.00;1.00;;;;;-147.49;100.00;58502.75;6353897;22;8823;-88
2022/07/22 10:08:17;;;;;;;;;1.75;1.75;;;;;-147.49;100.00;58502.75;6354935;22;9634;-88
2022/07/22 10:10:42;;;;;;;;;2.67;2.00;;;;;-147.49;100.00;58502.75;6352341;22;8738;-88
2022/07/22 10:13:08;;;;;;;;;3.00;3.00;;;;;-147.49;100.00;58502.75;6351689;22;8877;-88
2022/07/22 10:15:35;;;;;;;;;3.00;3.00;;;;;-147.49;100.00;58502.75;6349385;22;9764;-88
2022/07/22 10:18:23;;;;;;;;;3.00;3.00;;;;;-147.49;100.00;58502.75;6350310;22;8733;-89
2022/07/22 10:21:07;;;;;;;;;2.25;2.25;;;;;-147.49;100.00;58502.75;6323307;22;8742;-88
2022/07/22 10:23:33;;;;;;;;;3.25;3.25;;;;;-147.49;100.00;58502.75;6351250;22;8765;-88
2022/07/22 10:26:00;;;;;;;;;3.00;3.00;;;;;-147.49;100.00;58502.75;6353852;22;8750;-89
2022/07/22 10:28:27;;;;;;;;;2.00;2.00;;;;;-147.49;100.00;58502.75;6351160;22;8699;-88
2022/07/22 10:31:00;;;;;;;;;3.00;3.00;;;;;-147.49;100.00;58502.75;6352297;22;8746;-88
2022/07/22 10:33:30;;;;;;;;;2.25;2.25;;;;;-147.49;100.00;58502.75;6351132;22;8900;-88
2022/07/22 10:35:59;;;;;;;;;2.00;2.00;;;;;-147.49;100.00;58502.75;6350275;22;8737;-89
2022/07/22 10:38:26;;;;;;;;;2.50;2.50;;;;;-147.49;100.00;58502.75;6350554;22;8738;-88
2022/07/22 10:41:00;;;;;;;;;3.75;3.75;;;;;-147.49;100.00;58502.75;6352287;22;8723;-89
2022/07/22 10:43:28;;;;;;;;;4.00;3.00;;;;;-147.49;100.00;58502.75;6323603;22;8824;-89
2022/07/22 10:46:00;;;;;;;;;4.00;4.00;;;;;-147.49;100.00;58502.75;6354536;22;9662;-89
2022/07/22 10:48:47;;;;;;;;;3.00;3.00;;;;;-147.49;100.00;58502.75;6349313;22;8734;-91
2022/07/22 10:51:18;;;;;;;;;3.00;3.00;;;;;-147.49;100.00;58502.75;6353016;22;8769;-89
2022/07/22 10:53:51;;;;;;;;;3.00;3.00;;;;;-147.49;100.00;58502.75;6355179;22;8727;-89
2022/07/22 10:56:26;;;;;;;;;2.00;2.00;;;;;-147.49;100.00;58502.75;6353662;22;8727;-89
2022/07/22 10:59:10;;;;;;;;;2.00;2.00;;;;;-147.49;100.00;58502.75;6352649;22;8722;-89
2022/07/22 11:01:42;;;;;;;;;3.00;3.00;;;;;-147.49;100.00;58502.75;6352374;22;9733;-89
2022/07/22 11:04:12;;;;;;;;;2.00;2.00;;;;;-147.49;100.00;58502.75;6352883;22;8742;-88
2022/07/22 11:06:37;;;;;;;;;2.00;2.00;;;;;-147.49;100.00;58502.75;6352628;22;8721;-89
2022/07/22 11:09:08;;;;;;;;;2.00;2.00;;;;;-147.49;100.00;58502.75;6354169;22;8750;-89
2022/07/22 11:11:41;;;;;;;;;2.25;2.25;;;;;-147.49;100.00;58502.75;6351891;22;8679;-88
2022/07/22 11:14:30;;;;;;;;;1.25;1.25;;;;;-147.49;100.00;58502.75;6353376;22;8726;-89
2022/07/22 11:17:09;;;;;;;;;3.50;3.50;;;;;-147.49;100.00;58502.75;6353735;22;8741;-89
2022/07/22 11:19:39;;;;;;;;;3.00;3.00;;;;;-147.49;100.00;58502.75;6355979;22;8738;-89
2022/07/22 11:22:10;;;;;;;;;2.50;2.50;;;;;-147.49;100.00;58502.75;6355147;22;8776;-92
2022/07/22 11:24:37;;;;;;;;;2.75;2.75;;;;;-147.49;100.00;58502.75;6355320;22;8749;-90
2022/07/22 11:27:13;;;;;;;;;1.75;1.75;;;;;-147.49;100.00;58502.75;6354262;22;8714;-89
2022/07/22 11:29:42;;;;;;;;;2.00;2.00;;;;;-147.49;100.00;58502.75;6356291;22;8731;-90
2022/07/22 11:32:09;;;;;;;;;2.00;2.00;;;;;-147.49;100.00;58502.75;6355419;22;8715;-90
2022/07/22 11:34:45;;;;;;;;;3.00;3.00;;;;;-147.49;100.00;58502.75;6355534;22;9660;-89
2022/07/22 11:37:12;;;;;;;;;4.25;3.00;;;;;-147.49;100.00;58502.75;6355170;22;8734;-89
2022/07/22 11:39:37;;;;;;;;;2.50;2.50;;;;;-147.49;100.00;58502.75;6356003;22;8727;-90
2022/07/22 11:42:03;;;;;;;;;2.00;2.00;;;;;-147.49;100.00;58502.75;6355409;22;9532;-89
2022/07/22 11:44:34;;;;;;;;;4.75;3.00;;;;;-147.49;100.00;58502.75;6356193;22;8786;-89
2022/07/22 11:47:00;;;;;;;;;2.50;2.50;;;;;-147.49;100.00;58502.75;6355748;22;8799;-90
2022/07/22 11:49:32;;;;;;;;;3.00;3.00;;;;;-147.49;100.00;58502.75;6327704;22;8884;-90
2022/07/22 11:51:58;;;;;;;;;1.75;1.75;;;;;-147.49;100.00;58502.75;6355581;22;8738;-89
2022/07/22 11:54:23;;;;;;;;;3.00;3.00;;;;;-147.49;100.00;58502.75;6356204;22;9546;-89
2022/07/22 11:56:49;;;;;;;;;2.00;2.00;;;;;-147.49;100.00;58502.75;6356371;22;8718;-90
2022/07/22 11:59:17;;;;;;;;;2.00;2.00;;;;;-147.49;100.00;58502.75;6327602;22;8758;-89
2022/07/22 12:01:44;;;;;;;;;3.50;3.50;;;;;-147.49;100.00;58502.75;6355433;22;8773;-89
2022/07/22 12:04:25;;;;;;;;;2.50;2.50;;;;;-147.49;100.00;58502.75;6355563;22;8754;-89
2022/07/22 12:06:54;;;;;;;;;3.00;3.00;;;;;-147.49;100.00;58502.75;6355710;22;8719;-89
2022/07/22 12:09:19;;;;;;;;;2.00;2.00;;;;;-147.49;100.00;58502.75;6355396;22;8768;-89
2022/07/22 12:11:50;;;;;;;;;2.00;2.00;;;;;-147.49;100.00;58502.75;6355313;22;8738;-90
2022/07/22 12:14:24;;;;;;;;;4.75;4.75;;;;;-147.49;100.00;58502.75;6355864;22;8740;-89
2022/07/22 12:17:10;;;;;;;;;4.00;2.75;;;;;-147.49;100.00;58502.75;6355717;22;8758;-90
2022/07/22 12:19:38;;;;;;;;;4.50;3.00;;;;;-147.49;100.00;58502.75;6355603;22;8734;-89
2022/07/22 12:22:09;;;;;;;;;2.25;2.25;;;;;-147.49;100.00;58502.75;6355600;22;8717;-89
2022/07/22 12:24:45;;;;;;;;;5.00;5.00;;;;;-147.49;100.00;58502.75;6355439;22;8738;-89
2022/07/22 12:27:18;;;;;;;;;4.75;4.25;;;;;-147.49;100.00;58502.75;6326435;22;8734;-89
2022/07/22 12:29:46;;;;;;;;;3.00;3.00;;;;;-147.49;100.00;58502.75;6356205;22;8707;-89
2022/07/22 12:32:24;;;;;;;;;2.00;2.00;;;;;-147.49;100.00;58502.75;6354640;22;8760;-89
2022/07/22 12:35:06;;;;;;;;;1.00;1.00;;;;;-147.49;100.00;58502.75;6355785;22;8675;-89
2022/07/22 12:37:49;;;;;;;;;4.75;4.75;;;;;-147.49;100.00;58502.75;6354850;22;9599;-89
2022/07/22 12:40:22;;;;;;;;;4.00;4.00;;;;;-147.49;100.00;58502.75;6356121;22;8711;-89
2022/07/22 12:43:07;;;;;;;;;4.00;4.00;;;;;-147.49;100.00;58502.75;6327162;22;8732;-89
2022/07/22 12:45:37;;;;;;;;;3.50;3.50;;;;;-147.49;100.00;58502.75;6353768;22;8966;-89
2022/07/22 12:48:05;;;;;;;;;2.50;2.50;;;;;-147.49;100.00;58502.75;6355495;22;8745;-89
2022/07/22 12:50:38;;;;;;;;;5.25;5.25;;;;;-147.49;100.00;58502.75;6355156;22;8718;-89
2022/07/22 12:53:09;;;;;;;;;2.00;2.00;;;;;-147.49;100.00;58502.75;6354267;22;8768;-89
2022/07/22 12:55:40;;;;;;;;;3.50;3.50;;;;;-147.49;100.00;58502.75;6354415;22;8741;-89
2022/07/22 12:58:06;;;;;;;;;3.00;3.00;;;;;-147.49;100.00;58502.75;6355826;22;8721;-89
2022/07/22 13:00:38;;;;;;;;;3.00;3.00;;;;;-147.49;100.00;58502.75;6324930;22;8730;-90
2022/07/22 13:03:04;;;;;;;;;2.25;2.25;;;;;-147.49;100.00;58502.75;6326708;22;8738;-89
2022/07/22 13:05:30;;;;;;;;;7.00;4.67;;;;;-147.49;100.00;58502.75;6354603;22;8791;-89
2022/07/22 13:07:55;;;;;;;;;3.33;3.33;;;;;-147.49;100.00;58502.75;6355982;22;8718;-88
2022/07/22 13:10:25;;;;;;;;;2.33;2.33;;;;;-147.49;100.00;58502.75;6355416;22;8844;-89
2022/07/22 13:12:52;;;;;;;;;4.00;4.00;;;;;-147.49;100.00;58502.75;6327386;22;9548;-88
2022/07/22 13:15:18;;;;;;;;;1.00;1.00;;;;;-147.49;100.00;58502.75;6354864;22;9706;-90
2022/07/22 13:17:43;;;;;;;;;3.67;3.67;;;;;-147.49;100.00;58502.75;6325703;22;8722;-90
2022/07/22 13:20:10;;;;;;;;;3.33;3.33;;;;;-147.49;100.00;58502.75;6325867;22;10874;-90
2022/07/22 13:22:36;;;;;;;;;3.25;3.25;;;;;-147.49;100.00;58502.75;6355400;22;8738;-89
2022/07/22 13:25:03;;;;;;;;;5.33;5.33;;;;;-147.49;100.00;58502.75;6326932;22;8907;-90
2022/07/22 13:27:28;;;;;;;;;4.25;4.25;;;;;-147.49;100.00;58502.75;6354825;22;9596;-90
2022/07/22 13:29:53;;;;;;;;;5.33;5.33;;;;;-147.49;100.00;58502.75;6325562;22;8780;-89
2022/07/22 13:32:19;;;;;;;;;5.33;5.33;;;;;-147.49;100.00;58502.75;6352216;22;8820;-89
2022/07/22 13:34:47;;;;;;;;;5.00;4.67;;;;;-147.49;100.00;58502.75;6353708;22;8734;-89
2022/07/22 13:37:12;;;;;;;;;5.50;5.50;;;;;-147.49;100.00;58502.75;6354509;22;8778;-89
2022/07/22 13:39:40;;;;;;;;;4.33;4.33;;;;;-147.49;100.00;58502.75;6355557;22;8785;-89
2022/07/22 13:42:05;;;;;;;;;4.00;4.00;;;;;-147.49;100.00;58502.75;6353301;22;8778;-89
2022/07/22 13:44:35;;;;;;;;;3.67;3.67;;;;;-147.49;100.00;58502.75;6354266;22;8750;-89
2022/07/22 13:47:01;;;;;;;;;3.25;3.25;;;;;-147.49;100.00;58502.75;6355166;22;8722;-88
2022/07/22 13:49:26;;;;;;;;;4.67;3.00;;;;;-147.49;100.00;58502.75;6325375;22;9461;-89
2022/07/22 13:51:52;;;;;;;;;4.00;4.00;;;;;-147.49;100.00;58502.75;6354315;22;11108;-88
2022/07/22 13:54:18;;;;;;;;;6.00;6.00;;;;;-147.49;100.00;58502.75;6326974;22;8768;-89
2022/07/22 13:56:46;;;;;;;;;4.00;4.00;;;;;-147.49;100.00;58502.75;6354895;22;8699;-88
2022/07/22 13:59:12;;;;;;;;;5.00;5.00;;;;;-147.49;100.00;58502.75;6323211;22;8758;-89
2022/07/22 14:01:38;;;;;;;;;6.00;6.00;;;;;-147.49;100.00;58502.75;6353419;22;8766;-89
2022/07/22 14:04:04;;;;;;;;;6.67;6.00;;;;;-147.49;100.00;58502.75;6321222;22;8777;-88
2022/07/22 14:06:30;;;;;;;;;4.25;4.25;;;;;-147.49;100.00;58502.75;6349786;22;8719;-89
2022/07/22 14:08:55;;;;;;;;;5.00;5.00;;;;;-147.49;100.00;58502.75;6354195;22;8765;-89
2022/07/22 14:11:20;;;;;;;;;4.33;4.33;;;;;-147.49;100.00;58502.75;6353197;22;9476;-89
2022/07/22 14:13:49;;;;;;;;;3.67;3.67;;;;;-147.49;100.00;58502.75;6354250;22;8810;-89
2022/07/22 14:18:58;;;;;;;;;6.25;6.25;;;;;-147.49;100.00;58502.75;6355249;22;8738;-88
2022/07/22 14:21:23;;;;;;;;;5.00;5.00;;;;;-147.49;100.00;58502.75;6353671;22;9495;-89
2022/07/22 14:23:49;;;;;;;;;6.33;5.00;;;;;-147.49;100.00;58502.75;6354633;22;8811;-89
2022/07/22 14:26:14;;;;;;;;;6.00;6.00;;;;;-147.49;100.00;58502.75;6322940;22;8796;-89
2022/07/22 14:28:39;;;;;;;;;5.00;5.00;;;;;-147.49;100.00;58502.75;6323589;22;8738;-89
2022/07/22 14:31:05;;;;;;;;;5.33;5.33;;;;;-147.49;100.00;58502.75;6347561;22;9501;-89
2022/07/22 14:33:30;;;;;;;;;6.00;6.00;;;;;-147.49;100.00;58502.75;6352820;22;8815;-88
2022/07/22 14:35:56;;;;;;;;;5.33;5.33;;;;;-147.49;100.00;58502.75;6351989;22;8773;-89
2022/07/22 14:38:24;;;;;;;;;7.67;7.67;;;;;-147.49;100.00;58502.75;6326003;22;8836;-88
2022/07/22 14:40:49;;;;;;;;;7.75;7.75;;;;;-147.49;100.00;58502.75;6352648;22;8799;-88
2022/07/22 14:43:15;;;;;;;;;6.33;6.33;;;;;-147.49;100.00;58502.75;6354609;22;8738;-89
2022/07/22 14:45:41;;;;;;;;;6.75;6.75;;;;;-147.49;100.00;58502.75;6354968;22;8726;-89
2022/07/22 14:48:08;;;;;;;;;6.67;6.67;;;;;-147.49;100.00;58502.75;6354103;22;9347;-89
2022/07/22 14:50:34;;;;;;;;;6.25;6.25;;;;;-147.49;100.00;58502.75;6353500;22;8741;-88
2022/07/22 14:53:00;;;;;;;;;9.33;9.33;;;;;-147.49;100.00;58502.75;6349795;22;8751;-88
2022/07/22 14:55:25;;;;;;;;;8.67;8.67;;;;;-147.49;100.00;58502.75;6353299;22;8756;-88
2022/07/22 14:57:51;;;;;;;;;8.33;8.33;;;;;-147.49;100.00;58502.75;6352188;22;8730;-88
2022/07/22 15:00:19;;;;;;;;;8.00;8.00;;;;;-147.49;100.00;58502.75;6355823;22;8904;-89
2022/07/22 15:02:44;;;;;;;;;8.00;8.00;;;;;-147.49;100.00;58502.75;6326061;22;8820;-88
2022/07/22 15:05:10;;;;;;;;;10.67;10.67;;;;;-147.49;100.00;58502.75;6355627;22;8746;-88
2022/07/22 15:07:35;;;;;;;;;8.67;8.67;;;;;-147.49;100.00;58502.75;6356016;22;8760;-88
2022/07/22 15:10:00;;;;;;;;;7.33;7.33;;;;;-147.49;100.00;58502.75;6355481;22;8876;-89
2022/07/22 15:12:26;;;;;;;;;4.67;4.67;;;;;-147.49;100.00;58502.75;6355307;22;9535;-89
2022/07/22 15:14:51;;;;;;;;;8.67;8.67;;;;;-147.49;100.00;58502.75;6356493;22;8903;-89
2022/07/22 15:17:17;;;;;;;;;9.33;9.33;;;;;-147.49;100.00;58502.75;6354693;22;8774;-88
2022/07/22 15:19:42;;;;;;;;;7.67;7.67;;;;;-147.49;100.00;58502.75;6354408;22;8749;-89
2022/07/22 15:22:08;;;;;;;;;8.00;8.00;;;;;-147.49;100.00;58502.75;6352464;22;8758;-88
2022/07/22 15:24:34;;;;;;;;;7.00;7.00;;;;;-147.49;100.00;58502.75;6325521;22;8722;-89
2022/07/22 15:26:59;;;;;;;;;4.33;4.33;;;;;-147.49;100.00;58502.75;6348761;22;8742;-89
2022/07/22 15:29:25;;;;;;;;;8.00;8.00;;;;;-147.49;100.00;58502.75;6352358;22;8774;-89
2022/07/22 15:31:50;;;;;;;;;10.00;10.00;;;;;-147.49;100.00;58502.75;6350509;22;8861;-89
2022/07/22 15:34:16;;;;;;;;;8.33;8.33;;;;;-147.49;100.00;58502.75;6352776;22;8731;-89
2022/07/22 15:36:41;;;;;;;;;10.67;10.67;;;;;-147.49;100.00;58502.75;6355106;22;8746;-88
2022/07/22 15:39:07;;;;;;;;;9.67;9.67;;;;;-147.49;100.00;58502.75;6354560;22;8833;-88
2022/07/22 15:41:35;;;;;;;;;8.33;7.67;;;;;-147.49;100.00;58502.75;6354930;22;8797;-88
2022/07/22 15:44:04;;;;;;;;;9.50;9.50;;;;;-147.49;100.00;58502.75;6325992;22;8738;-88
2022/07/22 15:46:29;;;;;;;;;8.25;8.25;;;;;-147.49;100.00;58502.75;6353185;22;9111;-88
2022/07/22 15:48:57;;;;;;;;;8.00;8.00;;;;;-147.49;100.00;58502.75;6349344;22;8726;-89
2022/07/22 15:51:23;;;;;;;;;7.50;7.50;;;;;-147.49;100.00;58502.75;6353442;22;8710;-89
2022/07/22 15:53:48;;;;;;;;;6.33;6.33;;;;;-147.49;100.00;58502.75;6323914;22;9489;-89
2022/07/22 15:56:14;;;;;;;;;9.67;9.67;;;;;-147.49;100.00;58502.75;6353205;22;8805;-90
2022/07/22 16:01:24;;;;;;;;;7.25;7.25;;;;;-147.49;100.00;58502.75;6353526;22;8742;-88
2022/07/22 16:03:49;;;;;;;;;5.33;5.33;;;;;-147.49;100.00;58502.75;6325286;22;8764;-89
2022/07/22 16:06:14;;;;;;;;;12.33;12.33;;;;;-147.49;100.00;58502.75;6354744;22;8742;-89
2022/07/22 16:08:40;;;;;;;;;7.67;7.67;;;;;-147.49;100.00;58502.75;6355781;22;8769;-89
2022/07/22 16:11:05;;;;;;;;;9.33;9.33;;;;;-147.49;100.00;58502.75;6353658;22;8753;-89
2022/07/22 16:13:31;;;;;;;;;6.67;6.67;;;;;-147.49;100.00;58502.75;6354044;22;8754;-88
2022/07/22 16:15:57;;;;;;;;;7.00;7.00;;;;;-147.49;100.00;58502.75;6355495;22;9507;-89
2022/07/22 16:18:22;;;;;;;;;6.67;6.67;;;;;-147.49;100.00;58502.75;6355408;22;8746;-89
2022/07/22 16:20:47;;;;;;;;;7.67;7.67;;;;;-147.49;100.00;58502.75;6352173;22;8786;-89
2022/07/22 16:23:13;;;;;;;;;7.67;7.67;;;;;-147.49;100.00;58502.75;6353161;22;8849;-88
